sensor_id;sensor_type;location;lat;lon;timestamp;temperature;humidity
45643;DHT22;31358;46.008;11.144;2023-06-14T00:01:43;18.30;99.90
45643;DHT22;31358;46.008;11.144;2023-06-14T00:04:11;18.20;99.90
45643;DHT22;31358;46.008;11.144;2023-06-14T00:06:36;18.30;99.90
45643;DHT22;31358;46.008;11.144;2023-06-14T00:09:03;18.30;99.90
45643;DHT22;31358;46.008;11.144;2023-06-14T00:11:31;18.20;99.90
45643;DHT22;31358;46.008;11.144;2023-06-14T00:13:57;18.30;99.90
45643;DHT22;31358;46.008;11.144;2023-06-14T00:16:23;18.30;99.90
45643;DHT22;31358;46.008;11.144;2023-06-14T00:18:48;18.20;99.90
45643;DHT22;31358;46.008;11.144;2023-06-14T00:21:14;18.10;99.90
45643;DHT22;31358;46.008;11.144;2023-06-14T00:23:40;18.10;99.90
45643;DHT22;31358;46.008;11.144;2023-06-14T00:26:06;18.10;99.90
45643;DHT22;31358;46.008;11.144;2023-06-14T00:28:31;18.20;99.90
45643;DHT22;31358;46.008;11.144;2023-06-14T00:30:57;18.20;99.90
45643;DHT22;31358;46.008;11.144;2023-06-14T00:33:22;18.20;99.90
45643;DHT22;31358;46.008;11.144;2023-06-14T00:35:48;18.20;99.90
45643;DHT22;31358;46.008;11.144;2023-06-14T00:38:14;18.10;99.90
45643;DHT22;31358;46.008;11.144;2023-06-14T00:40:39;18.00;99.90
45643;DHT22;31358;46.008;11.144;2023-06-14T00:43:05;18.10;99.90
45643;DHT22;31358;46.008;11.144;2023-06-14T00:45:31;18.10;99.90
45643;DHT22;31358;46.008;11.144;2023-06-14T00:48:01;18.10;99.90
45643;DHT22;31358;46.008;11.144;2023-06-14T00:50:28;17.90;99.90
45643;DHT22;31358;46.008;11.144;2023-06-14T00:52:55;17.80;99.90
45643;DHT22;31358;46.008;11.144;2023-06-14T00:55:21;17.80;99.90
45643;DHT22;31358;46.008;11.144;2023-06-14T00:57:48;17.90;99.90
45643;DHT22;31358;46.008;11.144;2023-06-14T01:00:15;17.90;99.90
45643;DHT22;31358;46.008;11.144;2023-06-14T01:02:40;17.80;99.90
45643;DHT22;31358;46.008;11.144;2023-06-14T01:05:06;17.70;99.90
45643;DHT22;31358;46.008;11.144;2023-06-14T01:07:35;17.70;99.90
45643;DHT22;31358;46.008;11.144;2023-06-14T01:15:53;17.80;99.90
45643;DHT22;31358;46.008;11.144;2023-06-14T01:18:19;17.80;99.90
45643;DHT22;31358;46.008;11.144;2023-06-14T01:20:47;17.60;99.90
45643;DHT22;31358;46.008;11.144;2023-06-14T01:23:18;17.60;99.90
45643;DHT22;31358;46.008;11.144;2023-06-14T01:25:44;17.50;99.90
45643;DHT22;31358;46.008;11.144;2023-06-14T01:28:11;17.60;99.90
45643;DHT22;31358;46.008;11.144;2023-06-14T01:30:42;17.50;99.90
45643;DHT22;31358;46.008;11.144;2023-06-14T01:33:12;17.50;99.90
45643;DHT22;31358;46.008;11.144;2023-06-14T01:35:40;17.40;99.90
45643;DHT22;31358;46.008;11.144;2023-06-14T01:38:06;17.20;99.90
45643;DHT22;31358;46.008;11.144;2023-06-14T01:40:34;17.00;99.90
45643;DHT22;31358;46.008;11.144;2023-06-14T01:43:00;17.00;99.90
45643;DHT22;31358;46.008;11.144;2023-06-14T01:45:27;17.10;99.90
45643;DHT22;31358;46.008;11.144;2023-06-14T01:47:53;17.10;99.90
45643;DHT22;31358;46.008;11.144;2023-06-14T01:50:20;17.10;99.90
45643;DHT22;31358;46.008;11.144;2023-06-14T01:52:46;17.00;99.90
45643;DHT22;31358;46.008;11.144;2023-06-14T01:55:12;17.00;99.90
45643;DHT22;31358;46.008;11.144;2023-06-14T01:57:37;17.10;99.90
45643;DHT22;31358;46.008;11.144;2023-06-14T02:00:06;17.20;99.90
45643;DHT22;31358;46.008;11.144;2023-06-14T02:02:38;17.30;99.90
45643;DHT22;31358;46.008;11.144;2023-06-14T02:05:04;17.20;99.90
45643;DHT22;31358;46.008;11.144;2023-06-14T02:07:29;17.20;99.90
45643;DHT22;31358;46.008;11.144;2023-06-14T02:09:55;17.10;99.90
45643;DHT22;31358;46.008;11.144;2023-06-14T02:12:21;17.30;99.90
45643;DHT22;31358;46.008;11.144;2023-06-14T02:14:46;17.20;99.90
45643;DHT22;31358;46.008;11.144;2023-06-14T02:17:12;17.30;99.90
45643;DHT22;31358;46.008;11.144;2023-06-14T02:19:38;17.20;99.90
45643;DHT22;31358;46.008;11.144;2023-06-14T02:22:04;17.30;99.90
45643;DHT22;31358;46.008;11.144;2023-06-14T02:24:29;17.30;99.90
45643;DHT22;31358;46.008;11.144;2023-06-14T02:26:55;17.20;99.90
45643;DHT22;31358;46.008;11.144;2023-06-14T02:29:21;16.90;99.90
45643;DHT22;31358;46.008;11.144;2023-06-14T02:31:46;16.80;99.90
45643;DHT22;31358;46.008;11.144;2023-06-14T02:34:14;16.80;99.90
45643;DHT22;31358;46.008;11.144;2023-06-14T02:36:42;16.90;99.90
45643;DHT22;31358;46.008;11.144;2023-06-14T02:39:08;16.80;99.90
45643;DHT22;31358;46.008;11.144;2023-06-14T02:41:37;16.80;99.90
45643;DHT22;31358;46.008;11.144;2023-06-14T02:44:03;16.90;99.90
45643;DHT22;31358;46.008;11.144;2023-06-14T02:46:29;16.70;99.90
45643;DHT22;31358;46.008;11.144;2023-06-14T02:48:55;16.60;99.90
45643;DHT22;31358;46.008;11.144;2023-06-14T02:51:20;16.50;99.90
45643;DHT22;31358;46.008;11.144;2023-06-14T02:53:46;16.60;99.90
45643;DHT22;31358;46.008;11.144;2023-06-14T02:56:12;16.60;99.90
45643;DHT22;31358;46.008;11.144;2023-06-14T02:58:38;16.50;99.90
45643;DHT22;31358;46.008;11.144;2023-06-14T03:01:05;16.50;99.90
45643;DHT22;31358;46.008;11.144;2023-06-14T03:03:33;16.70;99.90
45643;DHT22;31358;46.008;11.144;2023-06-14T03:05:59;16.80;99.90
45643;DHT22;31358;46.008;11.144;2023-06-14T03:08:30;16.80;99.90
45643;DHT22;31358;46.008;11.144;2023-06-14T03:10:57;16.70;99.90
45643;DHT22;31358;46.008;11.144;2023-06-14T03:13:23;16.70;99.90
45643;DHT22;31358;46.008;11.144;2023-06-14T03:15:49;16.60;99.90
45643;DHT22;31358;46.008;11.144;2023-06-14T03:18:17;16.40;99.90
45643;DHT22;31358;46.008;11.144;2023-06-14T03:20:44;16.30;99.90
45643;DHT22;31358;46.008;11.144;2023-06-14T03:23:11;16.20;99.90
45643;DHT22;31358;46.008;11.144;2023-06-14T03:25:37;16.30;99.90
45643;DHT22;31358;46.008;11.144;2023-06-14T03:28:06;16.40;99.90
45643;DHT22;31358;46.008;11.144;2023-06-14T03:30:32;16.20;99.90
45643;DHT22;31358;46.008;11.144;2023-06-14T03:32:58;16.20;99.90
45643;DHT22;31358;46.008;11.144;2023-06-14T03:35:26;16.20;99.90
45643;DHT22;31358;46.008;11.144;2023-06-14T03:37:52;16.20;99.90
45643;DHT22;31358;46.008;11.144;2023-06-14T03:40:19;16.10;99.90
45643;DHT22;31358;46.008;11.144;2023-06-14T03:42:45;16.30;99.90
45643;DHT22;31358;46.008;11.144;2023-06-14T03:45:11;16.40;99.90
45643;DHT22;31358;46.008;11.144;2023-06-14T03:47:36;16.40;99.90
45643;DHT22;31358;46.008;11.144;2023-06-14T03:50:03;16.30;99.90
45643;DHT22;31358;46.008;11.144;2023-06-14T03:52:29;16.40;99.90
45643;DHT22;31358;46.008;11.144;2023-06-14T03:54:55;16.40;99.90
45643;DHT22;31358;46.008;11.144;2023-06-14T03:57:21;16.10;99.90
45643;DHT22;31358;46.008;11.144;2023-06-14T03:59:47;16.10;99.90
45643;DHT22;31358;46.008;11.144;2023-06-14T04:02:13;16.20;99.90
45643;DHT22;31358;46.008;11.144;2023-06-14T04:04:41;16.30;99.90
45643;DHT22;31358;46.008;11.144;2023-06-14T04:07:10;16.30;99.90
45643;DHT22;31358;46.008;11.144;2023-06-14T04:09:37;16.40;99.90
45643;DHT22;31358;46.008;11.144;2023-06-14T04:12:03;16.50;99.90
45643;DHT22;31358;46.008;11.144;2023-06-14T04:14:28;16.50;99.90
45643;DHT22;31358;46.008;11.144;2023-06-14T04:16:56;16.50;99.90
45643;DHT22;31358;46.008;11.144;2023-06-14T04:19:21;16.60;99.90
45643;DHT22;31358;46.008;11.144;2023-06-14T04:21:47;16.70;99.90
45643;DHT22;31358;46.008;11.144;2023-06-14T04:24:12;16.80;99.90
45643;DHT22;31358;46.008;11.144;2023-06-14T04:26:40;16.80;99.90
45643;DHT22;31358;46.008;11.144;2023-06-14T04:29:06;16.80;99.90
45643;DHT22;31358;46.008;11.144;2023-06-14T04:31:32;16.90;99.90
45643;DHT22;31358;46.008;11.144;2023-06-14T04:34:03;16.90;99.90
45643;DHT22;31358;46.008;11.144;2023-06-14T04:36:34;17.00;99.90
45643;DHT22;31358;46.008;11.144;2023-06-14T04:39:02;17.10;99.90
45643;DHT22;31358;46.008;11.144;2023-06-14T04:41:32;17.20;99.90
45643;DHT22;31358;46.008;11.144;2023-06-14T04:43:58;17.30;99.90
45643;DHT22;31358;46.008;11.144;2023-06-14T04:46:27;17.20;99.90
45643;DHT22;31358;46.008;11.144;2023-06-14T04:48:54;17.30;99.90
45643;DHT22;31358;46.008;11.144;2023-06-14T04:51:20;17.30;99.90
45643;DHT22;31358;46.008;11.144;2023-06-14T04:53:56;17.40;99.90
45643;DHT22;31358;46.008;11.144;2023-06-14T04:56:26;17.40;99.90
45643;DHT22;31358;46.008;11.144;2023-06-14T04:58:52;17.50;99.90
45643;DHT22;31358;46.008;11.144;2023-06-14T05:01:19;17.50;99.90
45643;DHT22;31358;46.008;11.144;2023-06-14T05:03:46;17.50;99.90
45643;DHT22;31358;46.008;11.144;2023-06-14T05:06:14;17.60;99.90
45643;DHT22;31358;46.008;11.144;2023-06-14T05:08:40;17.70;99.90
45643;DHT22;31358;46.008;11.144;2023-06-14T05:11:05;17.70;99.90
45643;DHT22;31358;46.008;11.144;2023-06-14T05:13:31;17.80;99.90
45643;DHT22;31358;46.008;11.144;2023-06-14T05:15:58;17.70;99.90
45643;DHT22;31358;46.008;11.144;2023-06-14T05:18:24;17.70;99.90
45643;DHT22;31358;46.008;11.144;2023-06-14T05:20:51;17.80;99.90
45643;DHT22;31358;46.008;11.144;2023-06-14T05:23:16;17.90;99.90
45643;DHT22;31358;46.008;11.144;2023-06-14T05:25:43;17.80;99.90
45643;DHT22;31358;46.008;11.144;2023-06-14T05:28:09;17.90;99.90
45643;DHT22;31358;46.008;11.144;2023-06-14T05:30:35;17.90;99.90
45643;DHT22;31358;46.008;11.144;2023-06-14T05:33:01;18.00;99.90
45643;DHT22;31358;46.008;11.144;2023-06-14T05:35:26;17.90;99.90
45643;DHT22;31358;46.008;11.144;2023-06-14T05:37:52;18.00;99.90
45643;DHT22;31358;46.008;11.144;2023-06-14T05:40:19;18.00;99.90
45643;DHT22;31358;46.008;11.144;2023-06-14T05:42:45;18.00;99.90
45643;DHT22;31358;46.008;11.144;2023-06-14T05:45:11;18.20;99.90
45643;DHT22;31358;46.008;11.144;2023-06-14T05:47:37;18.10;99.90
45643;DHT22;31358;46.008;11.144;2023-06-14T05:50:02;18.20;99.90
45643;DHT22;31358;46.008;11.144;2023-06-14T05:52:28;18.20;99.90
45643;DHT22;31358;46.008;11.144;2023-06-14T05:54:55;18.20;99.90
45643;DHT22;31358;46.008;11.144;2023-06-14T05:57:20;18.10;99.90
45643;DHT22;31358;46.008;11.144;2023-06-14T05:59:46;18.20;99.90
45643;DHT22;31358;46.008;11.144;2023-06-14T06:02:12;18.30;99.90
45643;DHT22;31358;46.008;11.144;2023-06-14T06:04:37;18.40;99.90
45643;DHT22;31358;46.008;11.144;2023-06-14T06:07:03;18.40;99.90
45643;DHT22;31358;46.008;11.144;2023-06-14T06:09:29;18.40;99.90
45643;DHT22;31358;46.008;11.144;2023-06-14T06:11:55;18.40;99.90
45643;DHT22;31358;46.008;11.144;2023-06-14T06:14:21;18.40;99.90
45643;DHT22;31358;46.008;11.144;2023-06-14T06:16:47;18.50;99.90
45643;DHT22;31358;46.008;11.144;2023-06-14T06:19:12;18.50;99.90
45643;DHT22;31358;46.008;11.144;2023-06-14T06:21:38;18.60;99.90
45643;DHT22;31358;46.008;11.144;2023-06-14T06:24:05;18.60;99.90
45643;DHT22;31358;46.008;11.144;2023-06-14T06:26:31;18.80;99.90
45643;DHT22;31358;46.008;11.144;2023-06-14T06:28:58;18.80;99.90
45643;DHT22;31358;46.008;11.144;2023-06-14T06:31:23;18.80;99.90
45643;DHT22;31358;46.008;11.144;2023-06-14T06:33:49;19.00;99.90
45643;DHT22;31358;46.008;11.144;2023-06-14T06:36:16;19.00;99.90
45643;DHT22;31358;46.008;11.144;2023-06-14T06:38:41;19.10;99.90
45643;DHT22;31358;46.008;11.144;2023-06-14T06:41:07;18.80;99.90
45643;DHT22;31358;46.008;11.144;2023-06-14T06:43:33;19.00;99.90
45643;DHT22;31358;46.008;11.144;2023-06-14T06:45:58;18.90;99.90
45643;DHT22;31358;46.008;11.144;2023-06-14T06:48:24;19.00;99.90
45643;DHT22;31358;46.008;11.144;2023-06-14T06:50:50;19.10;99.90
45643;DHT22;31358;46.008;11.144;2023-06-14T06:53:16;19.30;99.90
45643;DHT22;31358;46.008;11.144;2023-06-14T06:55:44;19.50;99.90
45643;DHT22;31358;46.008;11.144;2023-06-14T06:58:09;19.60;99.90
45643;DHT22;31358;46.008;11.144;2023-06-14T07:00:35;19.80;99.90
45643;DHT22;31358;46.008;11.144;2023-06-14T07:03:01;19.80;99.90
45643;DHT22;31358;46.008;11.144;2023-06-14T07:05:29;19.60;99.90
45643;DHT22;31358;46.008;11.144;2023-06-14T07:07:55;19.50;99.90
45643;DHT22;31358;46.008;11.144;2023-06-14T07:10:20;19.80;99.90
45643;DHT22;31358;46.008;11.144;2023-06-14T07:12:46;19.80;99.90
45643;DHT22;31358;46.008;11.144;2023-06-14T07:15:12;19.80;99.90
45643;DHT22;31358;46.008;11.144;2023-06-14T07:17:37;19.90;99.90
45643;DHT22;31358;46.008;11.144;2023-06-14T07:20:04;20.10;99.90
45643;DHT22;31358;46.008;11.144;2023-06-14T07:22:50;20.00;99.90
45643;DHT22;31358;46.008;11.144;2023-06-14T07:25:15;20.20;99.90
45643;DHT22;31358;46.008;11.144;2023-06-14T07:27:42;20.40;99.90
45643;DHT22;31358;46.008;11.144;2023-06-14T07:30:09;20.50;99.90
45643;DHT22;31358;46.008;11.144;2023-06-14T07:32:35;20.60;99.90
45643;DHT22;31358;46.008;11.144;2023-06-14T07:35:01;20.60;99.90
45643;DHT22;31358;46.008;11.144;2023-06-14T07:37:27;20.50;99.90
45643;DHT22;31358;46.008;11.144;2023-06-14T07:39:52;20.60;99.90
45643;DHT22;31358;46.008;11.144;2023-06-14T07:42:18;20.70;99.90
45643;DHT22;31358;46.008;11.144;2023-06-14T07:44:43;20.80;99.90
45643;DHT22;31358;46.008;11.144;2023-06-14T07:47:09;21.10;99.90
45643;DHT22;31358;46.008;11.144;2023-06-14T07:49:35;21.30;99.90
45643;DHT22;31358;46.008;11.144;2023-06-14T07:52:01;21.30;99.90
45643;DHT22;31358;46.008;11.144;2023-06-14T07:54:26;21.30;99.90
45643;DHT22;31358;46.008;11.144;2023-06-14T07:56:53;21.00;99.90
45643;DHT22;31358;46.008;11.144;2023-06-14T07:59:18;21.00;99.90
45643;DHT22;31358;46.008;11.144;2023-06-14T08:01:44;21.00;99.90
45643;DHT22;31358;46.008;11.144;2023-06-14T08:04:13;21.10;99.90
45643;DHT22;31358;46.008;11.144;2023-06-14T08:06:39;21.30;99.90
45643;DHT22;31358;46.008;11.144;2023-06-14T08:09:04;21.20;99.90
45643;DHT22;31358;46.008;11.144;2023-06-14T08:11:31;21.10;99.90
45643;DHT22;31358;46.008;11.144;2023-06-14T08:13:57;21.00;99.90
45643;DHT22;31358;46.008;11.144;2023-06-14T08:16:22;21.00;99.90
45643;DHT22;31358;46.008;11.144;2023-06-14T08:18:48;21.00;99.90
45643;DHT22;31358;46.008;11.144;2023-06-14T08:21:14;20.90;99.90
45643;DHT22;31358;46.008;11.144;2023-06-14T08:23:43;21.20;99.90
45643;DHT22;31358;46.008;11.144;2023-06-14T08:26:09;21.40;99.90
45643;DHT22;31358;46.008;11.144;2023-06-14T08:28:35;21.40;99.90
45643;DHT22;31358;46.008;11.144;2023-06-14T08:31:01;21.10;99.90
45643;DHT22;31358;46.008;11.144;2023-06-14T08:33:27;21.40;99.90
45643;DHT22;31358;46.008;11.144;2023-06-14T08:35:52;21.80;99.90
45643;DHT22;31358;46.008;11.144;2023-06-14T08:38:18;22.20;99.90
45643;DHT22;31358;46.008;11.144;2023-06-14T08:40:47;22.10;99.90
45643;DHT22;31358;46.008;11.144;2023-06-14T08:43:13;22.30;99.90
45643;DHT22;31358;46.008;11.144;2023-06-14T08:45:39;22.50;99.90
45643;DHT22;31358;46.008;11.144;2023-06-14T08:48:06;22.90;99.90
45643;DHT22;31358;46.008;11.144;2023-06-14T08:50:32;23.00;99.90
45643;DHT22;31358;46.008;11.144;2023-06-14T08:53:01;23.10;99.90
45643;DHT22;31358;46.008;11.144;2023-06-14T08:55:29;23.60;99.90
45643;DHT22;31358;46.008;11.144;2023-06-14T08:57:56;23.40;99.90
45643;DHT22;31358;46.008;11.144;2023-06-14T09:00:26;22.90;99.90
45643;DHT22;31358;46.008;11.144;2023-06-14T09:02:52;23.00;99.90
45643;DHT22;31358;46.008;11.144;2023-06-14T09:05:26;23.40;99.90
45643;DHT22;31358;46.008;11.144;2023-06-14T09:07:52;23.70;99.90
45643;DHT22;31358;46.008;11.144;2023-06-14T09:10:22;23.30;99.90
45643;DHT22;31358;46.008;11.144;2023-06-14T09:12:48;23.30;99.90
45643;DHT22;31358;46.008;11.144;2023-06-14T09:15:13;23.00;99.90
45643;DHT22;31358;46.008;11.144;2023-06-14T09:17:40;22.90;99.90
45643;DHT22;31358;46.008;11.144;2023-06-14T09:20:07;22.90;99.90
45643;DHT22;31358;46.008;11.144;2023-06-14T09:22:37;23.00;99.90
45643;DHT22;31358;46.008;11.144;2023-06-14T09:25:04;23.00;99.90
45643;DHT22;31358;46.008;11.144;2023-06-14T09:27:30;23.00;99.90
45643;DHT22;31358;46.008;11.144;2023-06-14T09:29:56;23.00;99.90
45643;DHT22;31358;46.008;11.144;2023-06-14T09:32:22;22.80;99.90
45643;DHT22;31358;46.008;11.144;2023-06-14T09:34:48;22.90;99.90
45643;DHT22;31358;46.008;11.144;2023-06-14T09:37:27;23.00;99.90
45643;DHT22;31358;46.008;11.144;2023-06-14T09:39:53;23.70;99.90
45643;DHT22;31358;46.008;11.144;2023-06-14T09:42:19;23.90;99.90
45643;DHT22;31358;46.008;11.144;2023-06-14T09:44:48;24.40;99.90
45643;DHT22;31358;46.008;11.144;2023-06-14T09:47:18;25.00;99.90
45643;DHT22;31358;46.008;11.144;2023-06-14T09:49:44;24.90;99.60
45643;DHT22;31358;46.008;11.144;2023-06-14T09:52:18;24.80;99.60
45643;DHT22;31358;46.008;11.144;2023-06-14T09:54:45;25.20;99.50
45643;DHT22;31358;46.008;11.144;2023-06-14T09:57:14;25.60;98.90
45643;DHT22;31358;46.008;11.144;2023-06-14T09:59:44;25.90;99.40
45643;DHT22;31358;46.008;11.144;2023-06-14T10:02:26;26.10;98.40
45643;DHT22;31358;46.008;11.144;2023-06-14T10:05:07;25.50;98.40
45643;DHT22;31358;46.008;11.144;2023-06-14T10:07:53;24.70;99.00
45643;DHT22;31358;46.008;11.144;2023-06-14T10:10:21;24.70;99.00
45643;DHT22;31358;46.008;11.144;2023-06-14T10:12:47;25.10;98.80
45643;DHT22;31358;46.008;11.144;2023-06-14T10:15:23;25.80;97.60
45643;DHT22;31358;46.008;11.144;2023-06-14T10:17:58;25.30;97.30
45643;DHT22;31358;46.008;11.144;2023-06-14T10:20:32;25.70;98.60
45643;DHT22;31358;46.008;11.144;2023-06-14T10:23:10;26.40;97.60
45643;DHT22;31358;46.008;11.144;2023-06-14T10:25:38;26.20;97.20
45643;DHT22;31358;46.008;11.144;2023-06-14T10:31:11;26.00;97.20
45643;DHT22;31358;46.008;11.144;2023-06-14T10:33:50;25.80;96.80
45643;DHT22;31358;46.008;11.144;2023-06-14T10:36:26;25.90;96.50
45643;DHT22;31358;46.008;11.144;2023-06-14T10:39:15;26.10;96.30
45643;DHT22;31358;46.008;11.144;2023-06-14T10:41:42;26.30;96.60
45643;DHT22;31358;46.008;11.144;2023-06-14T10:46:52;26.20;95.70
45643;DHT22;31358;46.008;11.144;2023-06-14T10:52:10;27.00;94.60
45643;DHT22;31358;46.008;11.144;2023-06-14T10:55:15;26.80;94.60
45643;DHT22;31358;46.008;11.144;2023-06-14T11:00:12;26.00;94.70
45643;DHT22;31358;46.008;11.144;2023-06-14T11:05:50;26.50;94.80
45643;DHT22;31358;46.008;11.144;2023-06-14T11:11:00;26.70;94.50
45643;DHT22;31358;46.008;11.144;2023-06-14T11:13:26;26.70;93.80
45643;DHT22;31358;46.008;11.144;2023-06-14T11:15:52;26.70;93.00
45643;DHT22;31358;46.008;11.144;2023-06-14T11:18:19;26.60;91.90
45643;DHT22;31358;46.008;11.144;2023-06-14T11:20:49;27.00;93.00
45643;DHT22;31358;46.008;11.144;2023-06-14T11:23:15;27.00;92.90
45643;DHT22;31358;46.008;11.144;2023-06-14T11:25:41;26.90;93.20
45643;DHT22;31358;46.008;11.144;2023-06-14T11:28:07;27.10;92.40
45643;DHT22;31358;46.008;11.144;2023-06-14T11:30:32;26.90;93.10
45643;DHT22;31358;46.008;11.144;2023-06-14T11:32:58;26.70;93.70
45643;DHT22;31358;46.008;11.144;2023-06-14T11:35:25;26.90;93.90
45643;DHT22;31358;46.008;11.144;2023-06-14T11:37:55;26.90;93.90
45643;DHT22;31358;46.008;11.144;2023-06-14T11:40:24;26.80;93.10
45643;DHT22;31358;46.008;11.144;2023-06-14T11:42:54;26.90;92.80
45643;DHT22;31358;46.008;11.144;2023-06-14T11:45:23;26.90;93.20
45643;DHT22;31358;46.008;11.144;2023-06-14T11:47:48;26.70;92.90
45643;DHT22;31358;46.008;11.144;2023-06-14T11:50:14;26.60;92.50
45643;DHT22;31358;46.008;11.144;2023-06-14T11:52:40;26.70;93.20
45643;DHT22;31358;46.008;11.144;2023-06-14T11:55:06;26.70;93.00
45643;DHT22;31358;46.008;11.144;2023-06-14T11:57:35;26.60;93.10
45643;DHT22;31358;46.008;11.144;2023-06-14T12:00:06;26.70;93.00
45643;DHT22;31358;46.008;11.144;2023-06-14T12:02:38;27.10;93.10
45643;DHT22;31358;46.008;11.144;2023-06-14T12:05:06;27.00;92.70
45643;DHT22;31358;46.008;11.144;2023-06-14T12:07:39;27.20;93.10
45643;DHT22;31358;46.008;11.144;2023-06-14T12:10:08;27.30;92.90
45643;DHT22;31358;46.008;11.144;2023-06-14T12:12:38;27.40;93.40
45643;DHT22;31358;46.008;11.144;2023-06-14T12:15:05;27.60;93.50
45643;DHT22;31358;46.008;11.144;2023-06-14T12:17:38;27.50;93.30
45643;DHT22;31358;46.008;11.144;2023-06-14T12:20:12;27.10;93.20
45643;DHT22;31358;46.008;11.144;2023-06-14T12:22:51;27.30;93.60
45643;DHT22;31358;46.008;11.144;2023-06-14T12:25:29;27.30;93.70
45643;DHT22;31358;46.008;11.144;2023-06-14T12:28:03;27.50;93.90
45643;DHT22;31358;46.008;11.144;2023-06-14T12:30:29;27.40;93.00
45643;DHT22;31358;46.008;11.144;2023-06-14T12:32:54;27.50;93.10
45643;DHT22;31358;46.008;11.144;2023-06-14T12:35:20;27.40;93.00
45643;DHT22;31358;46.008;11.144;2023-06-14T12:37:46;27.30;93.40
45643;DHT22;31358;46.008;11.144;2023-06-14T12:40:13;27.00;93.30
45643;DHT22;31358;46.008;11.144;2023-06-14T12:42:40;27.00;93.20
45643;DHT22;31358;46.008;11.144;2023-06-14T12:45:06;27.10;94.00
45643;DHT22;31358;46.008;11.144;2023-06-14T12:47:32;27.20;93.20
45643;DHT22;31358;46.008;11.144;2023-06-14T12:49:57;27.20;93.00
45643;DHT22;31358;46.008;11.144;2023-06-14T12:52:23;27.40;93.70
45643;DHT22;31358;46.008;11.144;2023-06-14T12:54:49;27.20;93.90
45643;DHT22;31358;46.008;11.144;2023-06-14T12:57:15;27.40;93.20
45643;DHT22;31358;46.008;11.144;2023-06-14T12:59:41;27.50;93.30
45643;DHT22;31358;46.008;11.144;2023-06-14T13:02:19;27.50;92.60
45643;DHT22;31358;46.008;11.144;2023-06-14T13:04:50;27.50;92.00
45643;DHT22;31358;46.008;11.144;2023-06-14T13:07:16;27.50;92.30
45643;DHT22;31358;46.008;11.144;2023-06-14T13:09:42;27.40;92.20
45643;DHT22;31358;46.008;11.144;2023-06-14T13:12:12;27.50;92.80
45643;DHT22;31358;46.008;11.144;2023-06-14T13:14:39;27.10;92.70
45643;DHT22;31358;46.008;11.144;2023-06-14T13:17:08;27.40;93.00
45643;DHT22;31358;46.008;11.144;2023-06-14T13:19:33;27.80;92.80
45643;DHT22;31358;46.008;11.144;2023-06-14T13:21:59;28.00;92.60
45643;DHT22;31358;46.008;11.144;2023-06-14T13:24:24;27.50;91.70
45643;DHT22;31358;46.008;11.144;2023-06-14T13:26:50;27.70;92.10
45643;DHT22;31358;46.008;11.144;2023-06-14T13:29:16;28.10;91.60
45643;DHT22;31358;46.008;11.144;2023-06-14T13:31:41;28.30;91.50
45643;DHT22;31358;46.008;11.144;2023-06-14T13:34:07;28.50;91.70
45643;DHT22;31358;46.008;11.144;2023-06-14T13:36:33;28.50;91.60
45643;DHT22;31358;46.008;11.144;2023-06-14T13:38:58;28.60;91.40
45643;DHT22;31358;46.008;11.144;2023-06-14T13:41:26;28.70;90.80
45643;DHT22;31358;46.008;11.144;2023-06-14T13:43:57;28.20;90.20
45643;DHT22;31358;46.008;11.144;2023-06-14T13:46:23;27.60;91.20
45643;DHT22;31358;46.008;11.144;2023-06-14T13:48:49;27.40;91.60
45643;DHT22;31358;46.008;11.144;2023-06-14T13:51:14;27.30;91.00
45643;DHT22;31358;46.008;11.144;2023-06-14T13:53:40;27.30;90.40
45643;DHT22;31358;46.008;11.144;2023-06-14T13:56:06;27.30;91.20
45643;DHT22;31358;46.008;11.144;2023-06-14T13:58:32;27.20;91.00
45643;DHT22;31358;46.008;11.144;2023-06-14T14:00:57;27.20;91.50
45643;DHT22;31358;46.008;11.144;2023-06-14T14:03:25;27.40;91.40
45643;DHT22;31358;46.008;11.144;2023-06-14T14:05:50;27.50;92.10
45643;DHT22;31358;46.008;11.144;2023-06-14T14:08:16;27.40;92.10
45643;DHT22;31358;46.008;11.144;2023-06-14T14:10:41;27.20;91.80
45643;DHT22;31358;46.008;11.144;2023-06-14T14:13:07;27.30;91.80
45643;DHT22;31358;46.008;11.144;2023-06-14T14:15:33;27.20;92.10
45643;DHT22;31358;46.008;11.144;2023-06-14T14:18:00;27.40;92.20
45643;DHT22;31358;46.008;11.144;2023-06-14T14:20:26;27.60;91.80
45643;DHT22;31358;46.008;11.144;2023-06-14T14:22:51;27.70;91.90
45643;DHT22;31358;46.008;11.144;2023-06-14T14:25:17;27.50;92.10
45643;DHT22;31358;46.008;11.144;2023-06-14T14:27:42;27.50;91.90
45643;DHT22;31358;46.008;11.144;2023-06-14T14:30:08;27.80;91.90
45643;DHT22;31358;46.008;11.144;2023-06-14T14:32:34;27.90;91.60
45643;DHT22;31358;46.008;11.144;2023-06-14T14:35:00;28.10;91.80
45643;DHT22;31358;46.008;11.144;2023-06-14T14:37:25;28.10;91.30
45643;DHT22;31358;46.008;11.144;2023-06-14T14:39:51;28.20;91.30
45643;DHT22;31358;46.008;11.144;2023-06-14T14:42:17;28.30;91.10
45643;DHT22;31358;46.008;11.144;2023-06-14T14:44:43;28.30;91.30
45643;DHT22;31358;46.008;11.144;2023-06-14T14:47:10;28.30;91.30
45643;DHT22;31358;46.008;11.144;2023-06-14T14:49:35;28.10;91.90
45643;DHT22;31358;46.008;11.144;2023-06-14T14:52:01;28.50;91.50
45643;DHT22;31358;46.008;11.144;2023-06-14T14:54:27;28.00;90.70
45643;DHT22;31358;46.008;11.144;2023-06-14T14:56:54;27.90;91.10
45643;DHT22;31358;46.008;11.144;2023-06-14T14:59:20;27.90;91.10
45643;DHT22;31358;46.008;11.144;2023-06-14T15:01:47;28.10;90.60
45643;DHT22;31358;46.008;11.144;2023-06-14T15:04:13;28.20;91.00
45643;DHT22;31358;46.008;11.144;2023-06-14T15:06:39;28.50;91.50
45643;DHT22;31358;46.008;11.144;2023-06-14T15:09:06;28.40;90.40
45643;DHT22;31358;46.008;11.144;2023-06-14T15:11:31;28.30;90.60
45643;DHT22;31358;46.008;11.144;2023-06-14T15:13:57;28.20;90.50
45643;DHT22;31358;46.008;11.144;2023-06-14T15:16:23;28.40;90.20
45643;DHT22;31358;46.008;11.144;2023-06-14T15:18:49;28.30;91.20
45643;DHT22;31358;46.008;11.144;2023-06-14T15:21:14;28.20;90.60
45643;DHT22;31358;46.008;11.144;2023-06-14T15:23:40;28.40;90.90
45643;DHT22;31358;46.008;11.144;2023-06-14T15:26:06;28.20;90.50
45643;DHT22;31358;46.008;11.144;2023-06-14T15:28:31;28.30;90.50
45643;DHT22;31358;46.008;11.144;2023-06-14T15:30:59;28.20;90.60
45643;DHT22;31358;46.008;11.144;2023-06-14T15:33:24;28.00;90.90
45643;DHT22;31358;46.008;11.144;2023-06-14T15:35:50;28.10;91.00
45643;DHT22;31358;46.008;11.144;2023-06-14T15:38:16;27.80;91.50